Fort Sill, OK

3:28 AM CST on November 18, 2017 (GMT -0600)
Post Army Air Field

Weather History for KFSI - January, 2014

Change the Weather History Date:

Thursday, January 9, 2014

  Actual Average Record
Temperature  
Mean Temperature 36 °F -  
Max Temperature 39 °F 47 °F 78 °F (2009)
Min Temperature 32 °F 22 °F 3 °F (1977)
Degree Days  
Heating Degree Days 30    
Moisture  
Dew Point 35 °F    
Average Humidity 100    
Maximum Humidity 100    
Minimum Humidity 92    
Precipitation  
Precipitation 0.00 in - - ()
Sea Level Pressure  
Sea Level Pressure 30.11 in    
Wind  
Wind Speed 6 mph (East)    
Max Wind Speed 12 mph    
Max Gust Speed -    
Visibility 3 miles    
Events Fog    
Averages and records for this station are not official NWS values.
T = Trace of Precipitation, MM = Missing Value Source: NWS Daily Summary

Daily Weather History Graph

Daily Weather History Graph

Search for Another Location

Airport or City:

Trip Planner

Search our weather history database for the weather conditions in past years. The results will help you decide how hot, cold, wet, or windy it might be!

Date:

Astronomy

Jan. 09, 2014 Rise Set
Actual Time 7:41 AM CST 5:40 PM CST
Civil Twilight 7:13 AM CST 6:08 PM CST
Nautical Twilight 6:42 AM CST 6:39 PM CST
Astronomical Twilight 6:11 AM CST 7:09 PM CST
Moon 1:03 PM CST (1/9) 1:56 AM CST (1/9)
Length of Visible Light 10h 54m
Length of Day
9h 59m
Waxing Gibbous, 66% of the Moon is Illuminated
Jan 9
Waxing Gibbous
Jan 15
Full
Jan 23
Last Quarter
Jan 30
New
Feb 6
First Quarter

Hourly Weather History & Observations

Time (CST) Temp. Windchill Dew Point Humidity Pressure Visibility Wind Dir Wind Speed Gust Speed Precip Events Conditions
12:02 AM 35.6 °F 28.6 °F 35.6 °F 100% 30.18 in 3.0 mi NE 9.2 mph - N/A   Overcast
12:10 AM 35.6 °F 29.9 °F 35.6 °F 100% 30.18 in 3.0 mi NNE 6.9 mph - N/A   Overcast
12:58 AM 34.7 °F 28.1 °F 34.7 °F 100% 30.19 in 4.0 mi NE 8.1 mph - 0.00 in   Overcast
1:58 AM 34.0 °F 27.2 °F 34.0 °F 100% 30.19 in 7.0 mi NNE 8.1 mph - N/A   Overcast
2:48 AM 33.8 °F 27.0 °F 33.8 °F 100% 30.17 in 2.5 mi NE 8.1 mph - N/A   Overcast
2:58 AM 33.8 °F 27.7 °F 33.8 °F 100% 30.19 in 1.8 mi NE 6.9 mph - N/A   Overcast
3:02 AM 33.8 °F 27.0 °F 33.8 °F 100% 30.16 in 1.5 mi NE 8.1 mph - N/A   Overcast
3:08 AM 33.8 °F 27.0 °F 33.8 °F 100% 30.17 in 1.2 mi NE 8.1 mph - N/A   Overcast
3:16 AM 33.8 °F 27.7 °F 33.8 °F 100% 30.17 in 1.0 mi NNE 6.9 mph - N/A   Mist
3:38 AM 32.0 °F 24.8 °F 32.0 °F 100% 30.16 in 1.2 mi NE 8.1 mph - N/A   Overcast
3:40 AM 32.0 °F 24.2 °F 32.0 °F 100% 30.16 in 1.2 mi NNE 9.2 mph - N/A   Overcast
3:42 AM 32.0 °F 24.8 °F 32.0 °F 100% 30.16 in 1.0 mi NE 8.1 mph - N/A   Mist
3:50 AM 32.0 °F 25.6 °F 32.0 °F 100% 30.16 in 0.8 mi NE 6.9 mph - N/A   Mist
3:58 AM 33.4 °F 28.1 °F 33.4 °F 100% 30.18 in 0.8 mi NE 5.8 mph - N/A   Mist
4:58 AM 33.3 °F 27.9 °F 33.3 °F 100% 30.19 in 0.8 mi NE 5.8 mph - N/A   Mist
5:58 AM 33.1 °F 27.7 °F 33.1 °F 100% 30.18 in 0.8 mi NE 5.8 mph - N/A   Mist
6:28 AM 32.0 °F 27.5 °F 32.0 °F 100% 30.16 in 1.0 mi NE 4.6 mph - N/A   Mist
6:32 AM 32.0 °F 27.5 °F 32.0 °F 100% 30.16 in 1.0 mi NE 4.6 mph - N/A   Mist
6:42 AM 32.0 °F 26.4 °F 32.0 °F 100% 30.16 in 1.2 mi NE 5.8 mph - N/A   Overcast
6:46 AM 32.0 °F 26.4 °F 32.0 °F 100% 30.16 in 1.5 mi NE 5.8 mph - N/A   Overcast
6:50 AM 32.0 °F 27.5 °F 32.0 °F 100% 30.16 in 1.5 mi NE 4.6 mph - N/A   Overcast
6:52 AM 32.0 °F 28.7 °F 32.0 °F 100% 30.17 in 1.8 mi NE 3.5 mph - N/A   Overcast
6:58 AM 33.1 °F 28.7 °F 33.1 °F 100% 30.19 in 1.8 mi NE 4.6 mph - N/A   Overcast
7:06 AM 32.0 °F 27.5 °F 32.0 °F 100% 30.17 in 2.0 mi NE 4.6 mph - N/A   Overcast
7:08 AM 32.0 °F 27.5 °F 32.0 °F 100% 30.17 in 2.0 mi NE 4.6 mph - N/A   Overcast
7:12 AM 32.0 °F 27.5 °F 32.0 °F 100% 30.17 in 3.0 mi NE 4.6 mph - N/A   Overcast
7:14 AM 32.0 °F 27.5 °F 32.0 °F 100% 30.17 in 3.0 mi NE 4.6 mph - N/A   Overcast
7:22 AM 32.0 °F 28.7 °F 32.0 °F 100% 30.17 in 3.0 mi NE 3.5 mph - N/A   Overcast
7:24 AM 32.0 °F 27.5 °F 32.0 °F 100% 30.17 in 2.5 mi NE 4.6 mph - N/A   Overcast
7:28 AM 32.0 °F 26.4 °F 32.0 °F 100% 30.16 in 2.0 mi ENE 5.8 mph - N/A   Overcast
7:30 AM 32.0 °F 26.4 °F 32.0 °F 100% 30.17 in 1.8 mi ENE 5.8 mph - N/A   Overcast
7:32 AM 32.0 °F 27.5 °F 32.0 °F 100% 30.17 in 1.5 mi ENE 4.6 mph - N/A   Overcast
7:36 AM 32.0 °F 27.5 °F 32.0 °F 100% 30.17 in 1.0 mi NE 4.6 mph - N/A   Mist
7:38 AM 32.0 °F 27.5 °F 32.0 °F 100% 30.17 in 1.0 mi ENE 4.6 mph - N/A   Mist
7:40 AM 32.0 °F 27.5 °F 32.0 °F 100% 30.17 in 0.8 mi ENE 4.6 mph - N/A   Mist
7:42 AM 32.0 °F 27.5 °F 32.0 °F 100% 30.17 in 0.5 mi NE 4.6 mph - N/A Fog Fog
7:48 AM 32.0 °F 26.4 °F 32.0 °F 100% 30.16 in 0.5 mi ENE 5.8 mph - N/A Fog Fog
7:56 AM 32.0 °F 26.4 °F 32.0 °F 100% 30.17 in 0.5 mi ENE 5.8 mph - N/A Fog Fog
7:58 AM 32.0 °F 26.4 °F 32.0 °F 100% 30.19 in 0.5 mi ENE 5.8 mph - N/A Fog Fog
8:00 AM 32.0 °F 26.4 °F 32.0 °F 100% 30.17 in 0.8 mi ENE 5.8 mph - N/A   Mist
8:02 AM 32.0 °F 26.4 °F 32.0 °F 100% 30.17 in 0.8 mi ENE 5.8 mph - N/A   Mist
8:10 AM 32.0 °F 26.4 °F 32.0 °F 100% 30.17 in 1.0 mi ENE 5.8 mph - N/A   Mist
8:14 AM 32.0 °F 27.5 °F 32.0 °F 100% 30.18 in 1.2 mi ENE 4.6 mph - N/A   Overcast
8:18 AM 32.0 °F 26.4 °F 32.0 °F 100% 30.18 in 1.5 mi ENE 5.8 mph - N/A   Overcast
8:22 AM 32.0 °F 26.4 °F 32.0 °F 100% 30.18 in 1.8 mi ENE 5.8 mph - N/A   Overcast
8:32 AM 32.0 °F 28.7 °F 32.0 °F 100% 30.18 in 2.0 mi ENE 3.5 mph - N/A   Overcast
8:46 AM 32.0 °F 27.5 °F 32.0 °F 100% 30.18 in 3.0 mi ENE 4.6 mph - N/A   Overcast
8:48 AM 32.0 °F 27.5 °F 32.0 °F 100% 30.18 in 2.5 mi ENE 4.6 mph - N/A   Overcast
8:52 AM 32.0 °F 27.5 °F 32.0 °F 100% 30.18 in 1.8 mi ENE 4.6 mph - N/A   Overcast
8:54 AM 32.0 °F 27.5 °F 32.0 °F 100% 30.18 in 1.5 mi ENE 4.6 mph - N/A   Overcast
8:56 AM 32.0 °F 27.5 °F 32.0 °F 100% 30.18 in 1.0 mi ENE 4.6 mph - N/A   Overcast
8:58 AM 32.0 °F 27.5 °F 32.0 °F 100% 30.20 in 1.0 mi ENE 4.6 mph - N/A   Overcast
9:04 AM 32.0 °F 27.5 °F 32.0 °F 100% 30.18 in 1.2 mi East 4.6 mph - N/A   Overcast
9:06 AM 32.0 °F 27.5 °F 32.0 °F 100% 30.19 in 1.5 mi East 4.6 mph - N/A   Overcast
9:08 AM 32.0 °F 27.5 °F 32.0 °F 100% 30.19 in 2.5 mi East 4.6 mph - N/A   Overcast
9:10 AM 32.0 °F 28.7 °F 32.0 °F 100% 30.19 in 3.0 mi East 3.5 mph - N/A   Overcast
9:18 AM 32.0 °F - 32.0 °F 100% 30.19 in 2.5 mi ENE 2.3 mph - N/A   Overcast
9:24 AM 32.0 °F 28.7 °F 32.0 °F 100% 30.19 in 1.8 mi ENE 3.5 mph - N/A   Overcast
9:34 AM 33.8 °F 30.8 °F 33.8 °F 100% 30.19 in 2.0 mi East 3.5 mph - N/A   Overcast
9:58 AM 34.2 °F - 34.2 °F 100% 30.22 in 2.0 mi ENE 2.3 mph - N/A   Overcast
10:14 AM 33.8 °F 30.8 °F 33.8 °F 100% 30.19 in 3.0 mi East 3.5 mph - N/A   Overcast
10:58 AM 35.2 °F - 35.2 °F 100% 30.20 in 6.0 mi ENE 2.3 mph - N/A   Overcast
11:38 AM 35.6 °F 32.8 °F 35.6 °F 100% 30.17 in 8.0 mi ESE 3.5 mph - N/A   Overcast
11:58 AM 36.1 °F - 36.1 °F 100% 30.19 in 9.0 mi East 1.2 mph - N/A   Overcast
12:38 PM 37.4 °F - 37.4 °F 100% 30.13 in 10.0 mi Calm Calm - N/A   Overcast
12:58 PM 37.4 °F - 37.4 °F 100% 30.14 in 10.0 mi North 1.2 mph - N/A   Overcast
1:38 PM 37.4 °F 33.8 °F 37.4 °F 100% 30.09 in 10.0 mi SSW 4.6 mph - N/A   Overcast
1:58 PM 38.5 °F - 37.2 °F 95% 30.10 in 10.0 mi West 1.2 mph - N/A   Overcast
2:30 PM 39.2 °F - 37.4 °F 93% 30.06 in 10.0 mi Variable 2.3 mph - N/A   Overcast
2:58 PM 39.7 °F 34.9 °F 37.6 °F 92% 30.07 in 10.0 mi SSE 6.9 mph - N/A   Overcast
3:58 PM 39.6 °F 34.0 °F 37.4 °F 92% 30.05 in 10.0 mi SE 8.1 mph - N/A   Overcast
4:17 PM 39.2 °F 34.2 °F 37.4 °F 93% 30.04 in 10.0 mi SSE 6.9 mph - N/A   Overcast
5:18 PM 39.2 °F 34.2 °F 37.4 °F 93% 30.02 in 8.0 mi South 6.9 mph - N/A   Overcast
5:48 PM 39.2 °F 34.2 °F 37.4 °F 93% 30.02 in 5.0 mi South 6.9 mph - N/A   Overcast
5:58 PM 38.3 °F 31.9 °F 38.1 °F 99% 30.04 in 5.0 mi South 9.2 mph - N/A   Overcast
6:18 PM 37.4 °F 30.3 °F 37.4 °F 100% 30.01 in 3.0 mi SSE 10.4 mph - N/A   Overcast
6:58 PM 37.4 °F 29.8 °F 37.4 °F 100% 30.03 in 3.0 mi SSE 11.5 mph - N/A   Overcast
7:04 PM 37.4 °F 30.3 °F 37.4 °F 100% 30.02 in 2.5 mi South 10.4 mph - N/A   Overcast
7:50 PM 37.4 °F 30.3 °F 37.4 °F 100% 30.02 in 3.0 mi South 10.4 mph - N/A   Overcast
7:52 PM 37.4 °F 31.4 °F 37.4 °F 100% 30.02 in 2.5 mi South 8.1 mph - N/A   Overcast
7:58 PM 37.4 °F 31.4 °F 37.4 °F 100% 30.04 in 2.5 mi South 8.1 mph - N/A   Overcast
8:38 PM 37.4 °F 30.3 °F 37.4 °F 100% 30.02 in 3.0 mi South 10.4 mph - N/A   Overcast
8:42 PM 37.4 °F 30.3 °F 37.4 °F 100% 30.02 in 2.5 mi SSE 10.4 mph - N/A   Overcast
8:58 PM 37.6 °F 31.6 °F 37.6 °F 100% 30.03 in 2.0 mi SSE 8.1 mph - N/A   Overcast
9:06 PM 37.4 °F 31.4 °F 37.4 °F 100% 30.01 in 1.8 mi South 8.1 mph - N/A   Overcast
9:10 PM 37.4 °F 32.8 °F 37.4 °F 100% 30.01 in 1.5 mi SSE 5.8 mph - N/A   Overcast
9:14 PM 37.4 °F 32.1 °F 37.4 °F 100% 30.01 in 1.2 mi SSE 6.9 mph - N/A   Overcast
9:18 PM 37.4 °F 32.1 °F 37.4 °F 100% 30.01 in 1.5 mi South 6.9 mph - N/A   Overcast
9:20 PM 37.4 °F 33.8 °F 37.4 °F 100% 30.01 in 1.8 mi South 4.6 mph - N/A   Overcast
9:22 PM 37.4 °F 32.8 °F 37.4 °F 100% 30.01 in 2.0 mi South 5.8 mph - N/A   Overcast
9:28 PM 37.4 °F 32.1 °F 37.4 °F 100% 30.01 in 3.0 mi South 6.9 mph - N/A   Overcast
9:34 PM 37.4 °F 32.1 °F 37.4 °F 100% 30.01 in 2.5 mi South 6.9 mph - N/A   Overcast
9:40 PM 37.4 °F 32.8 °F 37.4 °F 100% 30.01 in 1.8 mi SSE 5.8 mph - N/A   Overcast
9:44 PM 37.4 °F 33.8 °F 37.4 °F 100% 30.00 in 1.5 mi SSE 4.6 mph - N/A   Overcast
9:46 PM 37.4 °F 33.8 °F 37.4 °F 100% 30.00 in 1.2 mi SSE 4.6 mph - N/A   Overcast
9:52 PM 37.4 °F 32.8 °F 37.4 °F 100% 30.00 in 1.0 mi SSE 5.8 mph - N/A   Mist
9:58 PM 37.8 °F 33.3 °F 37.8 °F 100% 30.02 in 1.0 mi South 5.8 mph - N/A   Mist
10:12 PM 37.4 °F 32.1 °F 37.4 °F 100% 30.00 in 0.8 mi SSE 6.9 mph - N/A   Mist
10:58 PM 37.8 °F 33.3 °F 37.8 °F 100% 30.00 in 0.8 mi SSE 5.8 mph - N/A   Mist
11:06 PM 37.4 °F 32.1 °F 37.4 °F 100% 29.98 in 1.0 mi SSE 6.9 mph - N/A   Mist
11:10 PM 37.4 °F 32.8 °F 37.4 °F 100% 29.98 in 0.8 mi SSE 5.8 mph - N/A   Mist
11:30 PM 37.4 °F 32.8 °F 37.4 °F 100% 29.97 in 0.5 mi SSE 5.8 mph - N/A Fog Fog
11:35 PM 37.4 °F 33.8 °F 37.4 °F 100% 29.96 in 0.5 mi South 4.6 mph - N/A Fog Fog
11:50 PM 37.4 °F 33.8 °F 37.4 °F 100% 29.95 in 0.5 mi SSE 4.6 mph - N/A Fog Fog
11:54 PM 37.4 °F 34.9 °F 37.4 °F 100% 29.95 in 0.8 mi SE 3.5 mph - N/A   Mist
11:58 PM 37.4 °F 33.8 °F 37.4 °F 100% 29.97 in 0.5 mi SE 4.6 mph - N/A Fog Fog